Time;durP1;ratioP1;P1;durP2;ratioP2;P2;SDS_P1;SDS_P2;PMS_P1;PMS_P2;Temp;Humidity;BMP_temperature;BMP_pressure;BME280_temperature;BME280_humidity;BME280_pressure;Samples;Min_cycle;Max_cycle;Signal;HPM_P1;HPM_P2
2022/07/31 00:00:06;;;;;;;5.13;3.65;;;;;;;;;;4916495;29;20028;-42
2022/07/31 00:02:32;;;;;;;3.63;3.33;;;;;;;;;;4916287;29;20028;-42
2022/07/31 00:04:57;;;;;;;5.07;4.35;;;;;;;;;;4916244;29;20120;-41
2022/07/31 00:07:23;;;;;;;5.93;4.18;;;;;;;;;;4916230;29;20024;-42
2022/07/31 00:09:48;;;;;;;6.03;3.25;;;;;;;;;;4916410;29;20031;-43
2022/07/31 00:12:14;;;;;;;5.68;3.50;;;;;;;;;;4916094;29;20028;-41
2022/07/31 00:14:39;;;;;;;3.83;3.47;;;;;;;;;;4916214;29;20028;-41
2022/07/31 00:17:05;;;;;;;9.70;3.75;;;;;;;;;;4915773;29;20446;-43
2022/07/31 00:19:30;;;;;;;5.05;3.22;;;;;;;;;;4916041;29;20115;-41
2022/07/31 00:21:57;;;;;;;4.55;3.55;;;;;;;;;;4917716;29;20111;-41
2022/07/31 00:24:23;;;;;;;4.05;3.58;;;;;;;;;;4917557;29;20386;-44
2022/07/31 00:26:48;;;;;;;3.90;3.60;;;;;;;;;;4916968;29;20032;-44
2022/07/31 00:29:13;;;;;;;4.00;3.00;;;;;;;;;;4917479;29;20032;-43
2022/07/31 00:31:39;;;;;;;3.33;3.10;;;;;;;;;;4917344;29;20047;-43
2022/07/31 00:34:04;;;;;;;4.07;3.35;;;;;;;;;;4917341;29;20110;-44
2022/07/31 00:36:30;;;;;;;5.32;3.13;;;;;;;;;;4917164;29;20417;-43
2022/07/31 00:38:55;;;;;;;3.40;3.10;;;;;;;;;;4916837;29;20535;-42
2022/07/31 00:41:20;;;;;;;3.55;3.20;;;;;;;;;;4917021;29;20028;-42
2022/07/31 00:43:46;;;;;;;7.13;3.53;;;;;;;;;;4917027;29;20030;-42
2022/07/31 00:46:11;;;;;;;3.55;3.10;;;;;;;;;;4917254;29;20027;-42
2022/07/31 00:48:36;;;;;;;3.55;3.25;;;;;;;;;;4915334;29;20489;-42
2022/07/31 00:51:02;;;;;;;4.05;3.40;;;;;;;;;;4915303;29;20079;-43
2022/07/31 00:53:27;;;;;;;3.58;3.28;;;;;;;;;;4915760;29;20043;-42
2022/07/31 00:55:53;;;;;;;3.60;3.30;;;;;;;;;;4915007;29;20028;-41
2022/07/31 00:58:19;;;;;;;3.63;3.10;;;;;;;;;;4915184;29;20099;-42
2022/07/31 01:00:45;;;;;;;3.78;3.40;;;;;;;;;;4916658;29;20032;-54
2022/07/31 01:03:10;;;;;;;4.00;3.60;;;;;;;;;;4917032;29;20023;-49
2022/07/31 01:05:36;;;;;;;3.63;3.33;;;;;;;;;;4915903;29;20392;-50
2022/07/31 01:08:01;;;;;;;5.72;3.72;;;;;;;;;;4916843;29;20087;-46
2022/07/31 01:11:07;;;;;;;3.85;3.47;;;;;;;;;;4916571;29;20437;-51
2022/07/31 01:13:59;;;;;;;3.95;3.50;;;;;;;;;;4915912;29;20127;-46
2022/07/31 01:16:29;;;;;;;3.72;3.42;;;;;;;;;;4916536;29;20115;-44
2022/07/31 01:18:56;;;;;;;;;;;;;;;;;;4917146;29;20032;-45
2022/07/31 01:21:45;;;;;;;3.85;3.22;;;;;;;;;;4916451;29;19974;-44
2022/07/31 01:24:21;;;;;;;3.42;3.13;;;;;;;;;;4916674;29;20099;-46
2022/07/31 01:26:52;;;;;;;4.22;3.40;;;;;;;;;;4916643;29;20035;-47
2022/07/31 01:29:24;;;;;;;3.65;3.33;;;;;;;;;;4916611;29;20140;-46
2022/07/31 01:31:52;;;;;;;4.45;3.72;;;;;;;;;;4916494;29;20038;-44
2022/07/31 01:34:43;;;;;;;3.35;3.08;;;;;;;;;;4916324;29;20039;-46
2022/07/31 01:37:19;;;;;;;3.60;3.30;;;;;;;;;;4916316;29;20036;-46
2022/07/31 01:39:51;;;;;;;3.92;3.50;;;;;;;;;;4915890;29;20060;-56
2022/07/31 01:42:19;;;;;;;4.18;3.30;;;;;;;;;;4916530;29;20036;-47
2022/07/31 01:44:48;;;;;;;3.72;3.42;;;;;;;;;;4916137;29;20463;-47
2022/07/31 01:47:18;;;;;;;5.32;3.38;;;;;;;;;;4916247;29;20044;-45
2022/07/31 01:49:48;;;;;;;3.78;3.38;;;;;;;;;;4916205;29;20048;-49
2022/07/31 01:52:14;;;;;;;5.63;3.53;;;;;;;;;;4916158;29;20095;-45
2022/07/31 01:54:41;;;;;;;3.60;3.30;;;;;;;;;;4916474;29;20024;-58
2022/07/31 01:57:09;;;;;;;3.97;3.40;;;;;;;;;;4916487;29;20048;-49
2022/07/31 01:59:37;;;;;;;5.10;3.65;;;;;;;;;;4916464;29;20120;-45
2022/07/31 02:02:03;;;;;;;3.83;3.42;;;;;;;;;;4916109;29;20028;-46
2022/07/31 02:04:30;;;;;;;4.00;3.30;;;;;;;;;;4916069;29;20028;-45
2022/07/31 02:06:58;;;;;;;6.40;3.55;;;;;;;;;;4916119;29;20028;-46
2022/07/31 02:09:25;;;;;;;3.92;3.10;;;;;;;;;;4920133;29;20028;-45
2022/07/31 02:11:51;;;;;;;3.92;3.60;;;;;;;;;;4920006;29;20028;-50
2022/07/31 02:14:18;;;;;;;3.90;3.60;;;;;;;;;;4919835;29;20083;-47
2022/07/31 02:16:46;;;;;;;5.05;3.20;;;;;;;;;;4920062;29;20024;-48
2022/07/31 02:19:13;;;;;;;4.22;3.85;;;;;;;;;;4919980;29;20160;-46
2022/07/31 02:21:39;;;;;;;4.38;3.60;;;;;;;;;;4919598;29;20485;-48
2022/07/31 02:24:05;;;;;;;4.13;3.40;;;;;;;;;;4919950;29;20032;-48
2022/07/31 02:26:32;;;;;;;3.60;3.30;;;;;;;;;;4919592;29;20035;-46
2022/07/31 02:28:58;;;;;;;4.32;3.78;;;;;;;;;;4919844;29;20028;-45
2022/07/31 02:31:25;;;;;;;4.07;3.65;;;;;;;;;;4919793;29;20039;-45
2022/07/31 02:33:51;;;;;;;4.95;3.65;;;;;;;;;;4919709;29;20571;-46
2022/07/31 02:36:19;;;;;;;4.22;3.70;;;;;;;;;;4919434;29;20079;-45
2022/07/31 02:38:47;;;;;;;3.95;3.30;;;;;;;;;;4919665;29;20134;-45
2022/07/31 02:41:14;;;;;;;4.00;3.60;;;;;;;;;;4919597;29;20032;-45
2022/07/31 02:43:40;;;;;;;3.92;3.63;;;;;;;;;;4919248;29;20032;-47
2022/07/31 02:46:07;;;;;;;3.95;3.65;;;;;;;;;;4919559;29;20080;-54
2022/07/31 02:48:33;;;;;;;4.00;3.60;;;;;;;;;;4918945;29;20044;-46
2022/07/31 02:50:59;;;;;;;4.15;3.75;;;;;;;;;;4919146;29;20131;-45
2022/07/31 02:53:25;;;;;;;4.32;3.85;;;;;;;;;;4919378;29;20036;-45
2022/07/31 02:55:51;;;;;;;5.30;3.60;;;;;;;;;;4919032;29;20039;-45
2022/07/31 02:58:17;;;;;;;4.35;3.67;;;;;;;;;;4919258;29;20111;-46
2022/07/31 03:00:42;;;;;;;3.95;3.65;;;;;;;;;;4919178;29;20029;-53
2022/07/31 03:03:08;;;;;;;5.22;4.03;;;;;;;;;;4918926;29;20242;-46
2022/07/31 03:05:33;;;;;;;3.85;3.50;;;;;;;;;;4919154;29;20036;-45
2022/07/31 03:07:58;;;;;;;4.95;3.50;;;;;;;;;;4918813;29;20381;-45
2022/07/31 03:10:24;;;;;;;4.40;4.00;;;;;;;;;;4918758;29;20024;-47
2022/07/31 03:12:52;;;;;;;3.90;3.50;;;;;;;;;;4918644;29;20036;-49
2022/07/31 03:15:19;;;;;;;5.72;3.85;;;;;;;;;;4918979;29;20032;-45
2022/07/31 03:17:46;;;;;;;3.70;3.35;;;;;;;;;;4918467;29;20469;-45
2022/07/31 03:20:13;;;;;;;3.97;3.60;;;;;;;;;;4918331;29;20115;-45
2022/07/31 03:22:39;;;;;;;4.22;3.90;;;;;;;;;;4918922;29;20111;-49
2022/07/31 03:25:06;;;;;;;5.68;3.80;;;;;;;;;;4918504;29;20512;-48
2022/07/31 03:27:32;;;;;;;4.18;3.80;;;;;;;;;;4918624;29;20084;-46
2022/07/31 03:29:57;;;;;;;4.00;3.60;;;;;;;;;;4918763;29;20030;-49
2022/07/31 03:32:23;;;;;;;4.45;3.80;;;;;;;;;;4917132;29;20024;-51
2022/07/31 03:34:48;;;;;;;3.95;3.63;;;;;;;;;;4918405;29;20091;-48
2022/07/31 03:37:14;;;;;;;3.70;3.40;;;;;;;;;;4918631;29;20135;-47
2022/07/31 03:39:39;;;;;;;4.25;3.85;;;;;;;;;;4918513;29;20060;-47
2022/07/31 03:42:08;;;;;;;3.88;3.58;;;;;;;;;;4918645;29;20429;-52
2022/07/31 03:44:34;;;;;;;3.63;3.33;;;;;;;;;;4918705;29;20028;-45
2022/07/31 03:46:59;;;;;;;4.55;3.55;;;;;;;;;;4918183;29;20115;-49
2022/07/31 03:49:25;;;;;;;5.80;3.38;;;;;;;;;;4918425;29;20426;-45
2022/07/31 03:51:51;;;;;;;4.65;3.10;;;;;;;;;;4918235;29;20043;-46
2022/07/31 03:54:16;;;;;;;3.20;3.00;;;;;;;;;;4918295;29;20020;-48
2022/07/31 03:56:45;;;;;;;3.55;3.00;;;;;;;;;;4917970;29;20028;-55
2022/07/31 03:59:12;;;;;;;5.68;3.03;;;;;;;;;;4917860;29;20184;-53
2022/07/31 04:01:38;;;;;;;3.20;2.90;;;;;;;;;;4917987;29;20084;-45
2022/07/31 04:04:03;;;;;;;3.20;2.90;;;;;;;;;;4918101;29;20437;-46
2022/07/31 04:06:29;;;;;;;3.25;3.00;;;;;;;;;;4917872;29;20477;-46
2022/07/31 04:08:54;;;;;;;3.13;2.83;;;;;;;;;;4918002;29;20156;-45
2022/07/31 04:11:19;;;;;;;3.13;2.83;;;;;;;;;;4917659;29;20543;-55
2022/07/31 04:13:45;;;;;;;3.33;2.53;;;;;;;;;;4916375;29;20035;-52
2022/07/31 04:16:10;;;;;;;3.50;2.60;;;;;;;;;;4917607;29;20086;-47
2022/07/31 04:18:36;;;;;;;3.58;2.83;;;;;;;;;;4917556;29;20028;-47
2022/07/31 04:21:01;;;;;;;5.43;2.42;;;;;;;;;;4917807;29;20042;-50
2022/07/31 04:23:27;;;;;;;4.80;2.63;;;;;;;;;;4917446;29;20031;-47
2022/07/31 04:25:52;;;;;;;2.63;2.42;;;;;;;;;;4917667;29;20103;-46
2022/07/31 04:28:17;;;;;;;2.80;2.47;;;;;;;;;;4917719;29;20679;-52
2022/07/31 04:30:43;;;;;;;2.47;2.28;;;;;;;;;;4916632;29;20373;-51
2022/07/31 04:33:08;;;;;;;3.20;2.50;;;;;;;;;;4917253;29;20388;-46
2022/07/31 04:35:34;;;;;;;2.63;2.42;;;;;;;;;;4917507;29;20043;-45
2022/07/31 04:37:59;;;;;;;2.53;2.33;;;;;;;;;;4917117;29;20021;-46
2022/07/31 04:40:26;;;;;;;2.50;2.30;;;;;;;;;;4917500;29;20075;-46
2022/07/31 04:42:52;;;;;;;4.35;2.53;;;;;;;;;;4917485;29;20107;-46
2022/07/31 04:45:18;;;;;;;2.70;2.50;;;;;;;;;;4917422;29;20031;-54
2022/07/31 04:47:43;;;;;;;2.50;2.17;;;;;;;;;;4917047;29;20044;-54
2022/07/31 04:50:09;;;;;;;2.75;2.55;;;;;;;;;;4917005;29;20382;-54
2022/07/31 04:52:35;;;;;;;2.40;2.20;;;;;;;;;;4917170;29;20032;-50
2022/07/31 04:55:00;;;;;;;2.50;2.30;;;;;;;;;;4917007;29;20036;-47
2022/07/31 04:57:26;;;;;;;2.30;2.10;;;;;;;;;;4917253;29;20024;-46
2022/07/31 04:59:51;;;;;;;2.65;2.38;;;;;;;;;;4916854;29;20028;-50
2022/07/31 05:02:16;;;;;;;4.78;2.10;;;;;;;;;;4917146;29;20028;-50
2022/07/31 05:04:42;;;;;;;2.58;2.38;;;;;;;;;;4917023;29;20028;-54
2022/07/31 05:07:07;;;;;;;3.70;2.20;;;;;;;;;;4917044;29;20107;-47
2022/07/31 05:09:34;;;;;;;4.85;2.60;;;;;;;;;;4916648;29;20055;-46
2022/07/31 05:12:00;;;;;;;1.95;1.85;;;;;;;;;;4916590;29;20036;-53
2022/07/31 05:14:26;;;;;;;2.47;2.20;;;;;;;;;;4916900;29;20032;-53
2022/07/31 05:16:52;;;;;;;3.05;2.30;;;;;;;;;;4916916;29;20028;-52
2022/07/31 05:19:17;;;;;;;2.13;2.03;;;;;;;;;;4916865;29;20402;-54
2022/07/31 05:21:43;;;;;;;2.63;2.40;;;;;;;;;;4916827;29;20350;-52
2022/07/31 05:24:09;;;;;;;2.30;2.10;;;;;;;;;;4916733;29;20362;-53
2022/07/31 05:26:34;;;;;;;2.55;2.15;;;;;;;;;;4916466;29;20031;-55
2022/07/31 05:29:01;;;;;;;8.90;2.88;;;;;;;;;;4916532;29;20032;-56
2022/07/31 05:31:27;;;;;;;6.25;2.30;;;;;;;;;;4916399;29;20449;-54
2022/07/31 05:33:53;;;;;;;7.32;2.65;;;;;;;;;;4916335;29;20074;-47
2022/07/31 05:36:18;;;;;;;6.68;2.67;;;;;;;;;;4916703;29;20115;-57
2022/07/31 05:38:44;;;;;;;6.75;2.40;;;;;;;;;;4916597;29;20112;-52
2022/07/31 05:41:10;;;;;;;3.05;2.13;;;;;;;;;;4916057;29;20088;-55
2022/07/31 05:43:36;;;;;;;4.78;2.25;;;;;;;;;;4916554;29;20083;-53
2022/07/31 05:46:02;;;;;;;5.40;2.30;;;;;;;;;;4916535;29;20032;-54
2022/07/31 05:48:28;;;;;;;6.03;2.13;;;;;;;;;;4916071;29;20069;-54
2022/07/31 05:50:54;;;;;;;14.43;2.38;;;;;;;;;;4916104;29;20074;-49
2022/07/31 05:53:19;;;;;;;5.63;1.98;;;;;;;;;;4916165;29;20028;-49
2022/07/31 05:55:47;;;;;;;2.55;2.28;;;;;;;;;;4916415;29;20032;-49
2022/07/31 05:58:13;;;;;;;30.60;3.30;;;;;;;;;;4916365;29;20087;-50
2022/07/31 06:00:39;;;;;;;8.00;1.88;;;;;;;;;;4916367;29;20036;-49
2022/07/31 06:03:05;;;;;;;2.10;1.90;;;;;;;;;;4916053;29;20036;-51
2022/07/31 06:05:31;;;;;;;3.75;2.17;;;;;;;;;;4916149;29;20035;-46
2022/07/31 06:07:58;;;;;;;2.90;2.15;;;;;;;;;;4916401;29;20036;-49
2022/07/31 06:10:24;;;;;;;7.70;2.03;;;;;;;;;;4916342;29;20024;-47
2022/07/31 06:12:49;;;;;;;4.45;2.13;;;;;;;;;;4916277;29;20043;-52
2022/07/31 06:15:15;;;;;;;2.13;1.92;;;;;;;;;;4916102;29;20403;-50
2022/07/31 06:17:42;;;;;;;4.57;2.00;;;;;;;;;;4916132;29;20028;-53
2022/07/31 06:20:08;;;;;;;4.03;1.90;;;;;;;;;;4915989;29;20539;-56
2022/07/31 06:22:34;;;;;;;8.68;1.85;;;;;;;;;;4916274;29;20123;-50
2022/07/31 06:24:59;;;;;;;4.97;1.60;;;;;;;;;;4916328;29;20473;-51
2022/07/31 06:27:25;;;;;;;10.68;2.20;;;;;;;;;;4916261;29;20028;-46
2022/07/31 06:29:51;;;;;;;4.05;1.80;;;;;;;;;;4915860;29;20028;-50
2022/07/31 06:32:17;;;;;;;2.13;1.65;;;;;;;;;;4915811;29;20091;-47
2022/07/31 06:34:43;;;;;;;10.50;1.90;;;;;;;;;;4915901;29;20029;-47
2022/07/31 06:37:09;;;;;;;2.13;1.73;;;;;;;;;;4916075;29;20115;-47
2022/07/31 06:39:35;;;;;;;4.70;1.83;;;;;;;;;;4915905;29;20032;-53
2022/07/31 06:42:00;;;;;;;6.45;1.95;;;;;;;;;;4916069;29;20032;-48
2022/07/31 06:44:26;;;;;;;5.03;1.77;;;;;;;;;;4915377;29;20040;-53
2022/07/31 06:46:52;;;;;;;2.45;1.60;;;;;;;;;;4915742;29;20060;-52
2022/07/31 06:49:17;;;;;;;2.55;1.90;;;;;;;;;;4915612;29;20048;-51
2022/07/31 06:51:43;;;;;;;4.88;1.85;;;;;;;;;;4915860;29;20035;-48
2022/07/31 06:54:10;;;;;;;3.53;1.90;;;;;;;;;;4917587;29;20031;-53
2022/07/31 06:56:36;;;;;;;3.28;1.90;;;;;;;;;;4919372;29;20024;-55
2022/07/31 06:59:04;;;;;;;3.42;2.03;;;;;;;;;;4919077;29;20499;-52
2022/07/31 07:01:30;;;;;;;4.68;1.65;;;;;;;;;;4919286;29;20430;-52
2022/07/31 07:03:55;;;;;;;11.07;2.03;;;;;;;;;;4918045;29;20028;-49
2022/07/31 07:06:21;;;;;;;7.50;2.25;;;;;;;;;;4918875;29;20047;-51
2022/07/31 07:08:46;;;;;;;3.35;1.77;;;;;;;;;;4918879;29;20114;-51
2022/07/31 07:11:12;;;;;;;4.05;1.60;;;;;;;;;;4918758;29;20111;-52
2022/07/31 07:13:38;;;;;;;4.60;1.50;;;;;;;;;;4918832;29;20481;-52
2022/07/31 07:16:03;;;;;;;7.35;1.50;;;;;;;;;;4918986;29;20103;-49
2022/07/31 07:18:28;;;;;;;3.00;1.45;;;;;;;;;;4918962;29;20380;-51
2022/07/31 07:20:54;;;;;;;2.67;1.58;;;;;;;;;;4918567;29;20426;-49
2022/07/31 07:23:20;;;;;;;1.60;1.50;;;;;;;;;;4918877;29;20047;-57
2022/07/31 07:25:46;;;;;;;5.32;1.42;;;;;;;;;;4918823;29;20028;-52
2022/07/31 07:28:12;;;;;;;2.05;1.50;;;;;;;;;;4918577;29;20429;-52
2022/07/31 07:30:38;;;;;;;1.92;1.60;;;;;;;;;;4918422;29;20030;-53
2022/07/31 07:33:05;;;;;;;5.20;1.90;;;;;;;;;;4918388;29;20036;-54
2022/07/31 07:35:30;;;;;;;2.60;1.58;;;;;;;;;;4918738;29;20028;-54
2022/07/31 07:37:57;;;;;;;5.82;1.67;;;;;;;;;;4918363;29;20634;-54
2022/07/31 07:40:23;;;;;;;2.28;1.70;;;;;;;;;;4918607;29;20032;-52
2022/07/31 07:42:49;;;;;;;3.35;1.52;;;;;;;;;;4918482;29;20036;-51
2022/07/31 07:45:14;;;;;;;1.80;1.70;;;;;;;;;;4918487;29;20079;-56
2022/07/31 07:47:40;;;;;;;2.30;1.38;;;;;;;;;;4917926;29;20052;-52
2022/07/31 07:50:07;;;;;;;3.42;1.80;;;;;;;;;;4918390;29;20067;-55
2022/07/31 07:52:34;;;;;;;2.20;1.63;;;;;;;;;;4918007;29;20032;-55
2022/07/31 07:54:59;;;;;;;1.98;1.55;;;;;;;;;;4918293;29;20038;-48
2022/07/31 07:57:25;;;;;;;2.72;1.60;;;;;;;;;;4918292;29;20105;-56
2022/07/31 07:59:51;;;;;;;3.47;1.50;;;;;;;;;;4917991;29;20028;-56
2022/07/31 08:02:16;;;;;;;2.03;1.27;;;;;;;;;;4918205;29;20082;-48
2022/07/31 08:04:42;;;;;;;2.63;1.50;;;;;;;;;;4917844;29;20385;-55
2022/07/31 08:07:08;;;;;;;3.33;1.60;;;;;;;;;;4917892;29;20029;-53
2022/07/31 08:09:34;;;;;;;17.10;2.15;;;;;;;;;;4918064;29;20152;-52
2022/07/31 08:12:00;;;;;;;7.13;1.33;;;;;;;;;;4917956;29;20484;-53
2022/07/31 08:14:27;;;;;;;7.57;1.90;;;;;;;;;;4918038;29;20362;-47
2022/07/31 08:16:53;;;;;;;6.35;1.90;;;;;;;;;;4917137;29;20499;-48
2022/07/31 08:19:18;;;;;;;2.78;1.30;;;;;;;;;;4917891;29;20032;-50
2022/07/31 08:21:45;;;;;;;1.77;1.30;;;;;;;;;;4917556;29;20040;-51
2022/07/31 08:24:11;;;;;;;4.18;1.30;;;;;;;;;;4917264;29;20036;-55
2022/07/31 08:29:35;;;;;;;2.22;1.63;;;;;;;;;;4885463;29;20044;-52
2022/07/31 08:32:01;;;;;;;1.55;1.30;;;;;;;;;;4917595;29;20119;-56
2022/07/31 08:34:27;;;;;;;1.40;1.30;;;;;;;;;;4917586;29;20083;-53
2022/07/31 08:36:52;;;;;;;3.25;1.30;;;;;;;;;;4917583;29;20406;-54
2022/07/31 08:39:19;;;;;;;1.33;1.23;;;;;;;;;;4917452;29;20025;-54
2022/07/31 08:41:44;;;;;;;2.08;1.30;;;;;;;;;;4917243;29;20725;-53
2022/07/31 08:44:10;;;;;;;2.03;1.67;;;;;;;;;;4917447;29;20040;-55
2022/07/31 08:46:38;;;;;;;1.42;1.33;;;;;;;;;;4917162;29;20024;-56
2022/07/31 08:49:05;;;;;;;1.90;1.55;;;;;;;;;;4916957;29;20048;-55
2022/07/31 08:51:35;;;;;;;1.40;1.30;;;;;;;;;;4917172;29;20035;-52
2022/07/31 08:54:05;;;;;;;3.72;1.20;;;;;;;;;;4917148;29;20433;-52
2022/07/31 08:56:34;;;;;;;1.30;1.20;;;;;;;;;;4915199;29;20052;-56
2022/07/31 08:59:00;;;;;;;1.40;1.30;;;;;;;;;;4915078;29;20051;-46
2022/07/31 09:01:26;;;;;;;1.45;1.35;;;;;;;;;;4915216;29;20036;-54
2022/07/31 09:03:53;;;;;;;1.95;1.27;;;;;;;;;;4916794;29;20119;-48
2022/07/31 09:06:18;;;;;;;2.53;1.55;;;;;;;;;;4916634;29;20521;-52
2022/07/31 09:08:44;;;;;;;1.30;1.20;;;;;;;;;;4915451;29;20063;-53
2022/07/31 09:11:11;;;;;;;1.73;1.40;;;;;;;;;;4916504;29;20024;-47
2022/07/31 09:13:37;;;;;;;7.05;1.55;;;;;;;;;;4916858;29;20032;-50
2022/07/31 09:16:03;;;;;;;4.70;1.48;;;;;;;;;;4916113;29;20032;-47
2022/07/31 09:18:29;;;;;;;1.50;1.40;;;;;;;;;;4916682;29;20396;-55
2022/07/31 09:21:00;;;;;;;2.85;1.48;;;;;;;;;;4916728;29;20028;-55
2022/07/31 09:23:27;;;;;;;16.80;2.75;;;;;;;;;;4915268;29;20426;-52
2022/07/31 09:25:57;;;;;;;1.70;1.30;;;;;;;;;;4916722;29;20020;-46
2022/07/31 09:28:32;;;;;;;;;;;;;;;;;;4916080;29;20032;-49
2022/07/31 09:30:58;;;;;;;2.47;1.30;;;;;;;;;;4916614;29;19915;-51
2022/07/31 09:33:27;;;;;;;3.00;1.20;;;;;;;;;;4916375;29;20028;-48
2022/07/31 09:35:52;;;;;;;6.00;1.30;;;;;;;;;;4916569;29;20028;-55
2022/07/31 09:38:18;;;;;;;5.35;1.20;;;;;;;;;;4915741;29;20024;-53
2022/07/31 09:40:44;;;;;;;2.35;1.27;;;;;;;;;;4915481;29;20500;-54
2022/07/31 09:43:24;;;;;;;1.98;1.00;;;;;;;;;;4916524;29;20040;-50
2022/07/31 09:45:57;;;;;;;;;;;;;;;;;;4915381;29;20031;-57
2022/07/31 09:48:23;;;;;;;11.20;1.40;;;;;;;;;;4915743;29;19919;-57
2022/07/31 09:51:02;;;;;;;7.70;1.55;;;;;;;;;;4916364;29;20433;-51
2022/07/31 09:53:41;;;;;;;1.45;1.20;;;;;;;;;;4914621;29;20032;-56
2022/07/31 09:56:11;;;;;;;3.70;1.20;;;;;;;;;;4915656;29;20080;-48
2022/07/31 09:58:36;;;;;;;15.07;1.50;;;;;;;;;;4906967;29;20686;-56
2022/07/31 10:01:03;;;;;;;8.98;1.45;;;;;;;;;;4906446;29;20033;-57
2022/07/31 10:03:29;;;;;;;11.35;1.70;;;;;;;;;;4905991;29;20079;-49
2022/07/31 10:05:56;;;;;;;16.70;1.85;;;;;;;;;;4907091;29;20028;-55
2022/07/31 10:08:22;;;;;;;17.50;2.10;;;;;;;;;;4899373;29;20032;-47
2022/07/31 10:10:48;;;;;;;5.40;1.30;;;;;;;;;;4895651;29;20029;-49
2022/07/31 10:13:18;;;;;;;4.43;1.20;;;;;;;;;;4895829;29;20131;-52
2022/07/31 10:15:45;;;;;;;11.45;1.50;;;;;;;;;;4897030;29;20493;-56
2022/07/31 10:18:11;;;;;;;16.13;1.58;;;;;;;;;;4897321;29;20033;-46
2022/07/31 10:20:40;;;;;;;10.93;1.27;;;;;;;;;;4904509;29;20091;-54
2022/07/31 10:23:20;;;;;;;10.32;1.45;;;;;;;;;;4915857;29;20062;-51
2022/07/31 10:25:55;;;;;;;10.35;1.95;;;;;;;;;;4916210;29;20089;-52
2022/07/31 10:28:22;;;;;;;5.05;1.08;;;;;;;;;;4916722;29;20032;-54
2022/07/31 10:30:49;;;;;;;6.57;1.15;;;;;;;;;;4919856;29;20160;-53
2022/07/31 10:33:14;;;;;;;4.10;1.80;;;;;;;;;;4919434;29;20036;-54
2022/07/31 10:35:54;;;;;;;10.05;1.48;;;;;;;;;;4919584;29;20032;-54
2022/07/31 10:38:27;;;;;;;7.50;1.27;;;;;;;;;;4911378;29;20161;-47
2022/07/31 10:41:02;;;;;;;15.77;1.70;;;;;;;;;;4900831;29;20033;-51
2022/07/31 10:43:53;;;;;;;6.88;1.20;;;;;;;;;;4900509;29;20028;-46
2022/07/31 10:46:28;;;;;;;19.35;1.50;;;;;;;;;;4881481;29;20036;-50
2022/07/31 10:48:54;;;;;;;21.30;1.67;;;;;;;;;;4900148;29;20052;-48
2022/07/31 10:51:21;;;;;;;27.33;1.67;;;;;;;;;;4909568;29;20047;-49
2022/07/31 10:53:57;;;;;;;14.35;2.55;;;;;;;;;;4908429;29;20048;-51
2022/07/31 10:56:23;;;;;;;21.05;2.10;;;;;;;;;;4900522;29;20125;-48
2022/07/31 10:58:57;;;;;;;8.00;1.48;;;;;;;;;;4900396;29;20062;-50
2022/07/31 11:01:24;;;;;;;11.82;1.17;;;;;;;;;;4900005;29;20028;-54
2022/07/31 11:03:53;;;;;;;4.03;1.10;;;;;;;;;;4900155;29;20386;-50
2022/07/31 11:06:20;;;;;;;8.50;1.55;;;;;;;;;;4899969;29;20119;-52
2022/07/31 11:08:52;;;;;;;3.45;1.10;;;;;;;;;;4900089;29;20029;-50
2022/07/31 11:11:29;;;;;;;4.75;1.00;;;;;;;;;;4899935;29;20385;-50
2022/07/31 11:13:55;;;;;;;6.47;1.52;;;;;;;;;;4911624;29;20115;-53
2022/07/31 11:16:21;;;;;;;9.23;1.52;;;;;;;;;;4908688;29;20099;-56
2022/07/31 11:18:57;;;;;;;7.03;1.50;;;;;;;;;;4909844;29;20149;-47
2022/07/31 11:21:31;;;;;;;7.22;1.92;;;;;;;;;;4902698;29;20036;-45
2022/07/31 11:23:57;;;;;;;5.30;1.50;;;;;;;;;;4899757;29;20495;-56
2022/07/31 11:26:24;;;;;;;6.57;1.40;;;;;;;;;;4900041;29;20063;-50
2022/07/31 11:28:49;;;;;;;6.45;1.52;;;;;;;;;;4899679;29;20028;-51
2022/07/31 11:31:15;;;;;;;5.15;1.40;;;;;;;;;;4899514;29;20021;-55
2022/07/31 11:33:43;;;;;;;6.78;1.42;;;;;;;;;;4899871;29;20032;-48
2022/07/31 11:36:16;;;;;;;6.13;1.40;;;;;;;;;;4899719;29;20139;-47
2022/07/31 11:38:49;;;;;;;3.47;1.20;;;;;;;;;;4898608;29;20504;-47
2022/07/31 11:41:15;;;;;;;6.05;1.25;;;;;;;;;;4898877;29;20119;-47
2022/07/31 11:43:46;;;;;;;4.07;1.13;;;;;;;;;;4898999;29;20044;-47
2022/07/31 11:46:12;;;;;;;2.92;1.00;;;;;;;;;;4899290;29;20504;-52
2022/07/31 11:48:38;;;;;;;2.05;1.27;;;;;;;;;;4898836;29;20048;-48
2022/07/31 11:51:04;;;;;;;2.30;1.42;;;;;;;;;;4898291;29;20544;-47
2022/07/31 11:53:30;;;;;;;3.67;1.77;;;;;;;;;;4899206;29;20033;-47
2022/07/31 11:55:59;;;;;;;3.63;1.23;;;;;;;;;;4899249;29;20107;-47
2022/07/31 11:58:27;;;;;;;18.52;2.15;;;;;;;;;;4899402;29;20032;-46
2022/07/31 12:00:56;;;;;;;6.63;1.30;;;;;;;;;;4899337;29;20037;-46
2022/07/31 12:03:31;;;;;;;10.33;1.40;;;;;;;;;;4899336;29;20385;-55
2022/07/31 12:05:57;;;;;;;16.27;3.33;;;;;;;;;;4899195;29;20051;-49
2022/07/31 12:08:24;;;;;;;39.30;4.65;;;;;;;;;;4898901;29;20490;-47
2022/07/31 12:10:54;;;;;;;4.63;1.45;;;;;;;;;;4898874;29;20064;-49
2022/07/31 12:13:21;;;;;;;13.63;1.70;;;;;;;;;;4898998;29;20380;-47
2022/07/31 12:16:13;;;;;;;23.85;2.47;;;;;;;;;;4899121;29;20032;-48
2022/07/31 12:18:51;;;;;;;9.13;1.70;;;;;;;;;;4896783;29;20040;-52
2022/07/31 12:21:17;;;;;;;28.80;2.55;;;;;;;;;;4898160;29;20035;-57
2022/07/31 12:23:46;;;;;;;15.02;2.13;;;;;;;;;;4898497;29;20029;-55
2022/07/31 12:26:22;;;;;;;6.90;2.03;;;;;;;;;;4896947;29;20031;-51
2022/07/31 12:28:57;;;;;;;6.47;1.48;;;;;;;;;;4898154;29;20072;-52
2022/07/31 12:31:22;;;;;;;13.57;1.40;;;;;;;;;;4898424;29;20071;-53
2022/07/31 12:33:48;;;;;;;10.02;1.80;;;;;;;;;;4898836;29;20068;-51
2022/07/31 12:36:15;;;;;;;5.95;1.70;;;;;;;;;;4898429;29;20027;-51
2022/07/31 12:38:41;;;;;;;8.88;1.30;;;;;;;;;;4898636;29;20080;-52
2022/07/31 12:41:06;;;;;;;5.85;1.23;;;;;;;;;;4898286;29;20112;-52
2022/07/31 12:43:32;;;;;;;10.75;1.95;;;;;;;;;;4898243;29;20111;-52
2022/07/31 12:46:01;;;;;;;16.73;1.98;;;;;;;;;;4898299;29;20036;-50
2022/07/31 12:48:27;;;;;;;9.13;1.48;;;;;;;;;;4898163;29;20082;-54
2022/07/31 12:50:53;;;;;;;13.20;1.73;;;;;;;;;;4897914;29;20056;-49
2022/07/31 12:53:18;;;;;;;12.15;1.88;;;;;;;;;;4898186;29;20029;-52
2022/07/31 12:55:44;;;;;;;28.08;3.00;;;;;;;;;;4898379;29;20124;-55
2022/07/31 12:58:09;;;;;;;26.42;2.28;;;;;;;;;;4896798;29;20103;-50
2022/07/31 13:00:35;;;;;;;21.15;2.47;;;;;;;;;;4898003;29;20489;-46
2022/07/31 13:03:00;;;;;;;18.60;2.25;;;;;;;;;;4898265;29;20039;-51
2022/07/31 13:05:26;;;;;;;8.55;1.58;;;;;;;;;;4897935;29;20492;-46
2022/07/31 13:07:52;;;;;;;11.48;1.70;;;;;;;;;;4897906;29;20087;-54
2022/07/31 13:10:19;;;;;;;10.40;1.60;;;;;;;;;;4898207;29;20036;-52
2022/07/31 13:12:45;;;;;;;8.35;1.80;;;;;;;;;;4898307;29;20426;-52
2022/07/31 13:15:12;;;;;;;23.25;2.53;;;;;;;;;;4898081;29;20426;-52
2022/07/31 13:17:40;;;;;;;22.55;4.43;;;;;;;;;;4897747;29;20351;-54
2022/07/31 13:20:10;;;;;;;15.38;1.58;;;;;;;;;;4895468;29;20044;-51
2022/07/31 13:22:37;;;;;;;15.27;1.95;;;;;;;;;;4897963;29;20039;-51
2022/07/31 13:25:04;;;;;;;12.68;2.35;;;;;;;;;;4897669;29;20304;-52
2022/07/31 13:27:30;;;;;;;28.33;2.78;;;;;;;;;;4897615;29;20490;-52
2022/07/31 13:29:57;;;;;;;34.70;2.63;;;;;;;;;;4897849;29;20041;-48
2022/07/31 13:32:24;;;;;;;11.82;2.00;;;;;;;;;;4897737;29;20042;-47
2022/07/31 13:34:51;;;;;;;10.40;2.05;;;;;;;;;;4897521;29;20029;-49
2022/07/31 13:37:17;;;;;;;5.18;1.50;;;;;;;;;;4897776;29;20039;-53
2022/07/31 13:39:42;;;;;;;4.45;1.75;;;;;;;;;;4897765;29;20029;-49
2022/07/31 13:42:08;;;;;;;6.28;1.70;;;;;;;;;;4897720;29;20115;-53
2022/07/31 13:44:34;;;;;;;8.05;1.50;;;;;;;;;;4897409;29;20389;-54
2022/07/31 13:47:00;;;;;;;11.88;1.88;;;;;;;;;;4897524;29;20392;-55
2022/07/31 13:49:30;;;;;;;7.20;1.48;;;;;;;;;;4897708;29;20029;-52
2022/07/31 13:51:59;;;;;;;11.73;2.08;;;;;;;;;;4897405;29;20036;-48
2022/07/31 13:54:25;;;;;;;7.97;1.60;;;;;;;;;;4897411;29;20421;-53
2022/07/31 13:56:51;;;;;;;4.03;1.65;;;;;;;;;;4897559;29;20111;-52
2022/07/31 13:59:17;;;;;;;9.50;1.63;;;;;;;;;;4897583;29;20123;-51
2022/07/31 14:01:42;;;;;;;13.15;1.88;;;;;;;;;;4897559;29;20040;-52
2022/07/31 14:04:08;;;;;;;5.03;1.23;;;;;;;;;;4901063;29;20466;-52
2022/07/31 14:06:33;;;;;;;16.58;1.92;;;;;;;;;;4901105;29;20548;-51
2022/07/31 14:08:59;;;;;;;9.95;1.45;;;;;;;;;;4901006;29;20135;-47
2022/07/31 14:11:24;;;;;;;5.80;1.23;;;;;;;;;;4901291;29;20056;-52
2022/07/31 14:13:50;;;;;;;1.95;1.45;;;;;;;;;;4901104;29;20047;-46
2022/07/31 14:16:15;;;;;;;3.50;1.60;;;;;;;;;;4900803;29;20028;-52
2022/07/31 14:18:41;;;;;;;9.82;1.67;;;;;;;;;;4900979;29;20064;-46
2022/07/31 14:21:06;;;;;;;3.30;1.10;;;;;;;;;;4901141;29;20046;-47
2022/07/31 14:23:32;;;;;;;7.00;1.33;;;;;;;;;;4884080;29;20425;-53
2022/07/31 14:25:58;;;;;;;6.60;1.95;;;;;;;;;;4901077;29;20067;-52
2022/07/31 14:28:26;;;;;;;3.30;1.27;;;;;;;;;;4901027;29;20386;-51
2022/07/31 14:30:52;;;;;;;2.05;1.48;;;;;;;;;;4901037;29;20025;-46
2022/07/31 14:33:17;;;;;;;3.00;1.13;;;;;;;;;;4899397;29;20035;-46
2022/07/31 14:35:43;;;;;;;2.40;1.10;;;;;;;;;;4900919;29;20025;-54
2022/07/31 14:38:08;;;;;;;4.53;1.27;;;;;;;;;;4900846;29;20036;-50
2022/07/31 14:40:34;;;;;;;7.88;1.42;;;;;;;;;;4900742;29;20040;-46
2022/07/31 14:42:59;;;;;;;3.58;1.10;;;;;;;;;;4900488;29;20033;-51